Time;durP1;ratioP1;P1;durP2;ratioP2;P2;SDS_P1;SDS_P2;PMS_P1;PMS_P2;Temp;Humidity;BMP_temperature;BMP_pressure;BME280_temperature;BME280_humidity;BME280_pressure;Samples;Min_cycle;Max_cycle;Signal;HPM_P1;HPM_P2
2022/03/29 00:01:56;;;;;;;8.25;6.07;;;;;;;17.41;34.68;93115.34;4903772;29;20035;-94
2022/03/29 00:04:46;;;;;;;9.75;5.90;;;;;;;17.42;34.52;93111.34;4904874;29;20442;-94
2022/03/29 00:07:27;;;;;;;10.88;5.38;;;;;;;17.41;34.92;93107.13;4936873;29;20418;-94
2022/03/29 00:10:23;;;;;;;7.03;5.13;;;;;;;17.39;34.74;93099.44;4919651;29;20553;-93
2022/03/29 00:13:22;;;;;;;7.53;5.75;;;;;;;17.39;34.61;93099.44;4845934;29;20037;-94
2022/03/29 00:15:56;;;;;;;6.93;4.88;;;;;;;17.40;34.42;93089.25;4827327;29;20113;-95
2022/03/29 00:18:50;;;;;;;9.52;5.43;;;;;;;17.39;34.48;93098.72;4823095;29;20066;-93
2022/03/29 00:21:41;;;;;;;6.55;5.63;;;;;;;17.38;34.30;93087.03;4847621;29;20053;-94
2022/03/29 00:24:23;;;;;;;9.25;4.88;;;;;;;17.39;34.60;93093.97;4778985;29;20039;-90
2022/03/29 00:27:05;;;;;;;7.82;5.03;;;;;;;17.39;34.54;93093.25;4798130;29;20034;-93
2022/03/29 00:30:01;;;;;;;7.50;5.13;;;;;;;17.38;34.42;93087.03;4816317;29;20452;-93
2022/03/29 00:32:27;;;;;;;6.68;4.93;;;;;;;17.38;34.69;93080.84;4786881;29;20058;-92
2022/03/29 00:35:24;;;;;;;;;;;;;;;;;;;;;
2022/03/29 00:40:58;;;;;;;7.90;5.30;;;;;;;17.38;34.45;93073.38;4754133;30;20552;-94
2022/03/29 00:43:54;;;;;;;;;;;;;;;;;;;;;
2022/03/29 00:46:59;;;;;;;7.50;5.40;;;;;;;17.36;34.74;93064.94;4719053;30;20051;-94
2022/03/29 00:49:32;;;;;;;6.05;4.90;;;;;;;17.36;34.39;93066.94;4726589;29;20047;-94
2022/03/29 00:52:03;;;;;;;7.70;5.50;;;;;;;17.34;34.54;93055.78;4795850;29;20093;-94
2022/03/29 00:54:41;;;;;;;7.85;5.20;;;;;;;17.35;34.31;93068.19;4833349;29;20049;-94
2022/03/29 00:57:30;;;;;;;;;;;;;;;;;;;;;
2022/03/29 00:59:58;;;;;;;7.18;5.10;;;;;;;17.35;34.53;93049.06;4857230;29;20046;-93
2022/03/29 01:02:31;;;;;;;7.57;5.38;;;;;;;17.34;34.75;93050.31;4853194;29;21328;-93
2022/03/29 01:05:11;;;;;;;7.65;5.35;;;;;;;17.34;34.73;93039.38;4862710;29;20040;-93
2022/03/29 01:07:48;;;;;;;6.55;4.97;;;;;;;17.35;34.23;93040.88;4864273;29;20036;-94
2022/03/29 01:10:18;;;;;;;6.53;5.03;;;;;;;17.34;34.20;93033.94;4852553;29;20041;-94
2022/03/29 01:12:46;;;;;;;6.25;4.47;;;;;;;17.33;34.57;93024.25;4867638;29;20040;-93
2022/03/29 01:15:16;;;;;;;9.93;5.93;;;;;;;17.32;34.39;93023.50;4844765;29;20037;-93
2022/03/29 01:18:01;;;;;;;6.85;4.93;;;;;;;17.33;34.20;93014.06;4893179;29;20043;-93
2022/03/29 01:20:32;;;;;;;8.35;4.95;;;;;;;17.33;34.15;93013.31;4888089;28;20097;-93
2022/03/29 01:23:12;;;;;;;;;;;;;;;17.37;34.48;93011.78;4923219;29;20125;-95
2022/03/29 01:25:52;;;;;;;6.77;4.50;;;;;;;17.33;34.30;93010.59;4903533;29;20449;-94
2022/03/29 01:28:23;;;;;;;7.63;4.97;;;;;;;17.31;34.66;93002.19;4902407;29;20047;-94
2022/03/29 01:30:53;;;;;;;7.10;4.65;;;;;;;17.32;34.35;93000.94;4939627;29;20035;-95
2022/03/29 01:33:32;;;;;;;5.75;4.10;;;;;;;17.30;34.05;93001.44;4917661;29;20042;-94
2022/03/29 01:36:11;;;;;;;8.48;5.35;;;;;;;17.32;34.58;93003.69;4888144;29;20095;-94
2022/03/29 01:38:40;;;;;;;7.53;4.32;;;;;;;17.31;34.37;92997.47;4909163;29;20048;-94
2022/03/29 01:41:17;;;;;;;7.45;4.75;;;;;;;17.31;34.77;92994.00;4919547;29;20036;-94
2022/03/29 01:43:45;;;;;;;6.38;4.78;;;;;;;17.30;34.45;92987.78;4913038;29;20043;-93
2022/03/29 01:46:21;;;;;;;7.55;5.03;;;;;;;17.31;34.66;92986.53;4920937;29;20040;-95
2022/03/29 01:48:54;;;;;;;7.35;4.90;;;;;;;17.31;34.28;92983.06;4878847;29;20095;-94
2022/03/29 01:51:20;;;;;;;7.13;4.93;;;;;;;17.31;34.07;92975.63;4919363;29;20047;-95
2022/03/29 01:53:46;;;;;;;7.22;5.25;;;;;;;17.32;34.38;92974.34;4936658;28;20542;-95
2022/03/29 01:56:19;;;;;;;6.80;5.15;;;;;;;17.32;34.41;92979.09;4902566;28;20042;-94
2022/03/29 01:58:55;;;;;;;7.82;5.35;;;;;;;17.30;34.54;92967.94;4928507;28;20424;-93
2022/03/29 02:01:32;;;;;;;7.88;5.00;;;;;;;17.30;34.57;92967.94;4928460;28;20194;-94
2022/03/29 02:03:58;;;;;;;6.32;4.75;;;;;;;17.31;34.39;92961.22;4915872;28;20035;-93
2022/03/29 02:06:31;;;;;;;7.38;5.40;;;;;;;17.29;34.14;92950.06;4904501;28;20040;-94
2022/03/29 02:09:06;;;;;;;7.95;5.63;;;;;;;17.29;34.27;92961.00;4923031;28;20034;-94
2022/03/29 02:11:35;;;;;;;7.00;5.03;;;;;;;17.29;34.16;92955.53;4898337;29;20074;-93
2022/03/29 02:14:11;;;;;;;;;;;;;;;;;;;;;
2022/03/29 02:16:48;;;;;;;9.77;4.90;;;;;;;17.31;34.19;92953.03;4918258;28;20469;-93
2022/03/29 02:19:16;;;;;;;6.78;5.30;;;;;;;17.29;34.61;92950.81;4969395;28;20056;-93
2022/03/29 02:21:44;;;;;;;7.38;5.07;;;;;;;17.28;34.38;92941.13;4951655;28;20038;-94
2022/03/29 02:24:17;;;;;;;7.43;5.53;;;;;;;17.28;34.28;92932.94;4933192;28;20038;-94
2022/03/29 02:26:53;;;;;;;7.43;5.05;;;;;;;17.31;34.29;92942.84;4963361;28;20053;-92
2022/03/29 02:29:25;;;;;;;6.63;5.35;;;;;;;17.29;34.26;92944.59;4980010;28;20137;-93
2022/03/29 02:31:56;;;;;;;8.48;5.43;;;;;;;17.28;34.19;92941.13;4982072;28;20493;-94
2022/03/29 02:34:21;;;;;;;9.93;5.47;;;;;;;17.30;34.47;92951.53;4961710;28;20129;-93
2022/03/29 02:36:50;;;;;;;6.65;4.72;;;;;;;17.28;34.30;92938.38;4991383;28;20120;-93
2022/03/29 02:39:24;;;;;;;8.73;5.15;;;;;;;17.31;34.32;92936.63;4977054;28;20065;-93
2022/03/29 02:42:10;;;;;;;10.52;5.32;;;;;;;17.28;34.61;92940.38;4964558;28;20131;-94
2022/03/29 02:44:46;;;;;;;6.85;5.15;;;;;;;17.28;34.17;92940.38;4953278;28;20081;-93
2022/03/29 02:47:12;;;;;;;6.05;4.53;;;;;;;17.27;34.61;92928.72;4967207;28;20042;-94
2022/03/29 02:50:00;;;;;;;6.65;4.78;;;;;;;17.26;34.23;92940.91;4952329;28;20045;-92
2022/03/29 02:52:52;;;;;;;7.63;4.78;;;;;;;17.27;34.11;92936.91;4955258;28;20353;-94
2022/03/29 02:55:45;;;;;;;6.35;5.13;;;;;;;17.28;34.12;92932.19;4953111;28;20042;-94
2022/03/29 02:58:23;;;;;;;7.60;4.60;;;;;;;17.26;34.28;92935.44;4964268;28;20129;-92
2022/03/29 03:00:52;;;;;;;10.23;5.82;;;;;;;17.28;34.46;92929.47;4975659;28;20040;-93
2022/03/29 03:03:30;;;;;;;6.75;5.07;;;;;;;17.25;34.25;92936.69;4978115;28;20045;-94
2022/03/29 03:06:10;;;;;;;7.20;5.18;;;;;;;17.25;34.40;92936.69;4991858;28;20041;-94
2022/03/29 03:08:43;;;;;;;6.63;4.50;;;;;;;17.26;34.28;92929.97;4983335;28;20040;-92
2022/03/29 03:11:11;;;;;;;6.43;4.78;;;;;;;17.25;34.23;92928.50;4990069;28;20103;-94
2022/03/29 03:13:40;;;;;;;8.10;5.15;;;;;;;17.26;34.53;92929.22;4985391;28;20036;-94
2022/03/29 03:16:16;;;;;;;6.95;4.95;;;;;;;17.25;34.25;92925.75;4989802;28;20041;-91
2022/03/29 03:19:16;;;;;;;6.63;4.53;;;;;;;17.25;34.09;92923.03;4977895;28;20053;-94
2022/03/29 03:21:47;;;;;;;7.13;5.10;;;;;;;17.25;34.68;92914.84;4992256;28;20037;-94
2022/03/29 03:24:18;;;;;;;;;;;;;;;17.29;34.09;92918.03;4984051;28;20040;-93
2022/03/29 03:27:00;;;;;;;7.43;5.80;;;;;;;17.23;34.30;92922.06;4993862;28;19921;-94
2022/03/29 03:29:33;;;;;;;7.95;5.22;;;;;;;17.23;34.17;92922.06;4980086;28;20500;-95
2022/03/29 03:31:59;;;;;;;6.93;5.20;;;;;;;17.23;34.30;92909.16;5011037;28;20416;-94
2022/03/29 03:34:35;;;;;;;8.70;5.68;;;;;;;17.22;34.18;92915.84;4997579;28;20120;-95
2022/03/29 03:37:02;;;;;;;7.20;5.00;;;;;;;17.23;34.06;92922.06;4992482;28;20259;-92
2022/03/29 03:39:36;;;;;;;6.90;5.03;;;;;;;17.23;34.26;92913.88;4949168;28;20064;-93
2022/03/29 03:42:04;;;;;;;8.32;4.95;;;;;;;17.21;34.38;92917.13;4974881;28;20154;-93
2022/03/29 03:44:31;;;;;;;8.93;5.82;;;;;;;17.23;34.65;92913.88;4987812;28;20034;-92
2022/03/29 03:47:00;;;;;;;266.10;30.90;;;;;;;17.23;34.12;92911.13;5019707;28;20033;-93
2022/03/29 03:49:29;;;;;;;17.77;6.50;;;;;;;17.23;34.49;92909.16;4982533;28;20034;-94
2022/03/29 03:51:59;;;;;;;16.40;6.05;;;;;;;17.26;34.34;92907.38;4938040;28;20034;-94
2022/03/29 03:54:46;;;;;;;;;;;;;;;;;;;;;
2022/03/29 03:57:14;;;;;;;20.38;6.15;;;;;;;17.25;34.09;92903.16;4976979;28;20056;-94
2022/03/29 03:59:39;;;;;;;27.33;11.35;;;;;;;17.09;32.71;92899.38;4976370;28;20125;-94
2022/03/29 04:02:05;;;;;;;34.92;11.75;;;;;;;17.04;31.98;92906.38;4961907;28;20520;-94
2022/03/29 04:04:42;;;;;;;29.40;13.32;;;;;;;17.04;32.34;92908.38;4973849;28;20393;-92
2022/03/29 04:07:12;;;;;;;30.92;12.55;;;;;;;17.02;32.02;92902.69;4942742;28;20053;-92
2022/03/29 04:09:39;;;;;;;26.10;13.65;;;;;;;17.02;31.98;92900.69;4944891;28;20422;-94
2022/03/29 04:12:05;;;;;;;32.65;13.63;;;;;;;17.03;32.03;92895.97;4944436;28;20046;-91
2022/03/29 04:14:31;;;;;;;36.13;14.07;;;;;;;17.01;32.09;92899.22;4965198;28;20038;-93
2022/03/29 04:17:01;;;;;;;48.25;14.95;;;;;;;16.99;32.58;92896.25;4983228;28;20038;-94
2022/03/29 04:19:29;;;;;;;53.08;15.27;;;;;;;17.04;32.63;92900.19;4960740;28;20304;-93
2022/03/29 04:21:55;;;;;;;45.13;17.33;;;;;;;17.04;32.82;92900.94;5007575;28;20042;-93
2022/03/29 04:24:20;;;;;;;44.47;14.25;;;;;;;17.04;32.94;92903.66;5002589;28;20038;-94
2022/03/29 04:26:54;;;;;;;47.42;15.45;;;;;;;17.06;32.67;92900.41;4987651;28;20033;-94
2022/03/29 04:29:21;;;;;;;48.85;15.30;;;;;;;17.06;33.02;92898.44;4991066;28;20132;-93
2022/03/29 04:31:49;;;;;;;56.97;15.38;;;;;;;17.13;33.19;92883.44;5009513;28;20076;-91
2022/03/29 04:34:15;;;;;;;43.72;16.02;;;;;;;17.13;33.43;92884.16;4992958;28;20052;-91
2022/03/29 04:36:40;;;;;;;45.05;15.93;;;;;;;17.10;33.90;92889.94;5001626;28;20037;-91
2022/03/29 04:39:06;;;;;;;34.08;15.57;;;;;;;17.14;34.13;92885.66;4999008;28;20046;-88
2022/03/29 04:41:32;;;;;;;42.80;19.52;;;;;;;17.17;34.35;92891.34;5022632;28;20491;-92
2022/03/29 04:43:57;;;;;;;46.08;14.88;;;;;;;17.21;34.28;92894.53;5017992;28;20064;-91
2022/03/29 04:46:27;;;;;;;52.42;16.65;;;;;;;17.24;34.05;92894.22;4990116;28;20037;-90
2022/03/29 04:48:52;;;;;;;55.05;17.10;;;;;;;17.24;33.98;92885.31;4982419;28;20096;-88
2022/03/29 04:51:18;;;;;;;76.10;21.60;;;;;;;17.26;34.44;92882.78;5004868;28;20325;-90
2022/03/29 04:53:46;;;;;;;95.50;23.63;;;;;;;17.28;33.86;92878.28;5013949;28;20060;-93
2022/03/29 04:56:12;;;;;;;56.55;18.08;;;;;;;17.24;34.12;92882.56;5020177;28;20516;-93
2022/03/29 04:58:37;;;;;;;71.63;17.95;;;;;;;17.23;33.42;92884.56;5006321;28;20109;-92
2022/03/29 05:01:04;;;;;;;66.00;18.95;;;;;;;17.12;32.56;92890.88;4996851;28;20079;-94
2022/03/29 05:03:32;;;;;;;90.03;20.38;;;;;;;17.08;32.21;92887.00;4999336;28;20117;-92
2022/03/29 05:05:57;;;;;;;70.93;15.80;;;;;;;16.94;32.24;92888.88;4981074;28;20044;-90
2022/03/29 05:08:23;;;;;;;68.47;19.20;;;;;;;16.92;32.15;92887.91;5000355;28;20045;-90
2022/03/29 05:10:49;;;;;;;84.20;23.67;;;;;;;16.85;31.58;92883.78;4996838;28;20413;-93
2022/03/29 05:13:15;;;;;;;77.22;24.83;;;;;;;16.80;31.61;92879.09;5001913;28;20487;-93
2022/03/29 05:15:41;;;;;;;85.90;24.17;;;;;;;16.63;31.50;92892.16;4994329;28;20051;-92
2022/03/29 05:18:06;;;;;;;73.07;22.65;;;;;;;16.71;31.86;92873.97;5022173;28;20052;-91
2022/03/29 05:20:32;;;;;;;88.15;26.05;;;;;;;16.61;31.50;92868.13;5011142;28;20120;-92
2022/03/29 05:22:57;;;;;;;81.18;24.73;;;;;;;16.63;31.20;92878.53;4996439;28;20246;-91
2022/03/29 05:25:24;;;;;;;78.30;23.92;;;;;;;16.55;31.33;92878.34;4991004;28;20041;-89
2022/03/29 05:27:50;;;;;;;78.57;23.95;;;;;;;16.60;31.36;92876.81;5000017;28;20029;-91
2022/03/29 05:30:16;;;;;;;71.45;24.25;;;;;;;16.53;31.41;92880.84;4994552;28;20587;-90
2022/03/29 05:32:42;;;;;;;66.72;23.15;;;;;;;16.55;31.14;92872.13;5001855;28;20040;-90
2022/03/29 05:35:09;;;;;;;64.13;22.17;;;;;;;16.46;31.31;92879.41;4995222;28;20052;-89
2022/03/29 05:37:35;;;;;;;55.40;18.73;;;;;;;16.48;31.39;92878.16;5010729;28;20034;-88
2022/03/29 05:40:01;;;;;;;53.28;19.33;;;;;;;16.47;31.45;92874.69;4995208;28;20044;-88
2022/03/29 05:42:26;;;;;;;62.47;21.40;;;;;;;16.44;31.37;92873.00;5016924;28;20033;-91
2022/03/29 05:44:52;;;;;;;55.63;18.45;;;;;;;16.43;31.41;92876.97;5031959;28;20404;-89
2022/03/29 05:50:04;;;;;;;78.05;24.55;;;;;;;16.44;31.44;92884.66;5021059;28;20545;-88
2022/03/29 05:52:29;;;;;;;86.18;25.02;;;;;;;16.40;31.29;92878.00;5010950;28;20072;-92
2022/03/29 05:54:55;;;;;;;135.32;28.88;;;;;;;16.43;31.42;92885.16;5009340;28;20607;-86
2022/03/29 05:57:21;;;;;;;90.05;24.15;;;;;;;16.38;31.59;92886.69;4993057;28;20665;-89
2022/03/29 05:59:47;;;;;;;69.22;21.67;;;;;;;16.40;31.52;92886.19;5021744;28;20061;-90
2022/03/29 06:02:12;;;;;;;56.65;19.63;;;;;;;16.44;31.48;92883.91;5010988;28;20044;-92
2022/03/29 06:04:40;;;;;;;63.42;20.58;;;;;;;16.52;31.57;92884.81;5009744;28;20036;-90
2022/03/29 06:07:05;;;;;;;55.88;22.35;;;;;;;16.55;31.72;92883.06;5013265;28;20060;-90
2022/03/29 06:09:32;;;;;;;70.05;25.13;;;;;;;16.56;31.77;92881.81;5002710;28;20033;-93
2022/03/29 06:11:57;;;;;;;62.08;22.48;;;;;;;16.63;32.61;92876.56;4989762;28;20047;-93
2022/03/29 06:14:23;;;;;;;84.78;22.65;;;;;;;16.69;32.21;92879.22;5013345;28;20045;-92
2022/03/29 06:16:48;;;;;;;82.88;22.88;;;;;;;16.72;32.54;92875.47;5013926;28;20061;-90
2022/03/29 06:19:14;;;;;;;72.15;22.33;;;;;;;16.75;32.43;92874.44;5010461;28;20042;-90
2022/03/29 06:21:40;;;;;;;66.43;20.73;;;;;;;16.79;32.25;92872.91;5006610;28;20066;-93
2022/03/29 06:24:06;;;;;;;58.45;19.70;;;;;;;16.82;32.59;92875.88;5012888;28;20034;-91
2022/03/29 06:26:32;;;;;;;58.35;18.05;;;;;;;16.83;32.60;92880.06;5016290;28;20053;-92
2022/03/29 06:28:58;;;;;;;54.13;20.45;;;;;;;16.84;32.75;92878.81;5045361;23;20727;-91
2022/03/29 06:31:23;;;;;;;76.03;21.63;;;;;;;16.83;32.34;92872.63;5038222;28;20045;-93
2022/03/29 06:33:49;;;;;;;64.07;19.88;;;;;;;16.84;32.91;92871.38;5016247;28;20039;-90
2022/03/29 06:36:16;;;;;;;64.25;16.88;;;;;;;16.88;32.88;92871.84;5028554;28;20068;-90
2022/03/29 06:38:42;;;;;;;54.78;18.40;;;;;;;16.85;32.54;92878.31;5067890;28;20118;-92
2022/03/29 06:41:13;;;;;;;55.92;19.55;;;;;;;16.89;32.86;92876.00;5018046;28;20041;-90
2022/03/29 06:43:39;;;;;;;67.65;18.50;;;;;;;16.89;32.67;92881.47;5042774;28;20071;-89
2022/03/29 06:46:07;;;;;;;93.97;20.80;;;;;;;16.93;32.77;92876.47;5007352;28;20124;-89
2022/03/29 06:48:33;;;;;;;85.15;20.33;;;;;;;16.95;33.04;92873.97;5032418;28;20053;-90
2022/03/29 06:50:58;;;;;;;88.80;20.95;;;;;;;16.97;32.91;92866.00;5029340;28;20037;-91
2022/03/29 06:53:24;;;;;;;88.25;23.88;;;;;;;16.96;32.91;92875.44;5013054;28;20037;-89
2022/03/29 06:55:51;;;;;;;102.30;25.77;;;;;;;16.97;32.37;92874.19;5016841;28;20063;-91
2022/03/29 06:58:17;;;;;;;77.57;20.85;;;;;;;16.97;32.80;92871.47;5011269;28;20036;-89
2022/03/29 07:00:43;;;;;;;89.22;24.13;;;;;;;16.98;32.76;92864.75;5025431;28;20041;-91
2022/03/29 07:03:09;;;;;;;78.15;23.25;;;;;;;17.00;32.38;92862.25;5029584;28;20048;-89
2022/03/29 07:05:38;;;;;;;92.22;24.27;;;;;;;17.04;32.21;92861.97;5028654;28;20044;-89
2022/03/29 07:08:10;;;;;;;95.22;25.92;;;;;;;17.05;32.51;92863.44;5011789;28;20029;-91
2022/03/29 07:13:21;;;;;;;81.55;26.23;;;;;;;17.05;32.68;92858.72;5041304;28;20146;-90
2022/03/29 07:15:49;;;;;;;95.38;27.60;;;;;;;17.05;33.02;92861.44;5026317;28;20048;-91
2022/03/29 07:18:15;;;;;;;117.18;34.67;;;;;;;17.10;32.16;92849.69;5027379;28;20509;-89
2022/03/29 07:20:40;;;;;;;117.78;33.85;;;;;;;17.14;32.53;92854.88;5031810;28;20078;-91
2022/03/29 07:23:06;;;;;;;100.68;31.20;;;;;;;17.08;32.71;92848.75;5016309;28;20032;-90
2022/03/29 07:25:32;;;;;;;92.60;27.77;;;;;;;17.10;33.66;92851.72;5033234;28;20048;-90
2022/03/29 07:27:57;;;;;;;108.82;30.58;;;;;;;17.14;32.79;92852.88;5024159;28;20033;-90
2022/03/29 07:30:23;;;;;;;103.50;28.58;;;;;;;17.10;32.53;92855.16;5013490;28;20532;-90
2022/03/29 07:32:51;;;;;;;99.40;26.02;;;;;;;17.12;33.43;92847.19;5041948;28;20050;-89
2022/03/29 07:35:18;;;;;;;94.22;25.65;;;;;;;17.11;33.16;92850.44;5012400;28;20060;-91
2022/03/29 07:37:44;;;;;;;106.45;26.48;;;;;;;17.13;33.54;92853.38;5021418;28;20049;-90
2022/03/29 07:40:11;;;;;;;91.72;26.27;;;;;;;17.13;33.06;92851.41;5030720;28;20048;-92
2022/03/29 07:42:36;;;;;;;119.68;31.85;;;;;;;17.13;32.98;92856.84;5019889;28;20045;-91
2022/03/29 07:45:07;;;;;;;108.43;28.00;;;;;;;17.14;33.54;92852.88;5027321;28;20392;-91
2022/03/29 07:47:34;;;;;;;106.55;27.17;;;;;;;17.13;33.17;92854.13;5003615;28;20045;-90
2022/03/29 07:50:01;;;;;;;73.10;24.55;;;;;;;17.12;33.52;92852.66;4999364;28;20632;-91
2022/03/29 07:52:27;;;;;;;85.18;27.00;;;;;;;17.15;33.60;92856.34;5026176;28;20051;-91
2022/03/29 07:54:53;;;;;;;93.20;27.52;;;;;;;17.18;33.52;92849.13;5015716;28;20032;-91
2022/03/29 07:57:19;;;;;;;106.90;35.28;;;;;;;17.20;32.96;92846.59;5025130;28;20033;-88
2022/03/29 07:59:44;;;;;;;104.35;31.85;;;;;;;17.20;32.83;92852.06;5001101;28;20037;-91
2022/03/29 08:02:10;;;;;;;93.97;32.70;;;;;;;17.21;32.87;92848.09;5045996;28;20111;-92
2022/03/29 08:04:35;;;;;;;82.38;29.80;;;;;;;17.25;33.04;92848.53;5005269;28;20062;-91
2022/03/29 08:07:03;;;;;;;98.95;31.15;;;;;;;17.25;32.61;92849.28;5037510;28;20032;-92
2022/03/29 08:09:28;;;;;;;100.95;31.33;;;;;;;17.26;32.60;92856.22;5012591;28;20510;-91
2022/03/29 08:12:04;;;;;;;105.20;31.67;;;;;;;17.24;32.81;92849.78;5016555;28;20042;-91
2022/03/29 08:14:30;;;;;;;81.78;32.42;;;;;;;17.25;33.39;92849.28;5006354;28;20026;-92
2022/03/29 08:16:56;;;;;;;84.18;29.25;;;;;;;17.26;33.10;92848.03;4960378;28;20038;-91
2022/03/29 08:19:22;;;;;;;88.70;29.70;;;;;;;17.28;33.31;92855.69;4965894;28;20046;-92
2022/03/29 08:21:49;;;;;;;98.97;34.60;;;;;;;17.28;33.48;92848.25;4968217;28;20037;-91
2022/03/29 08:24:15;;;;;;;107.03;35.00;;;;;;;17.29;32.76;92847.00;4971549;28;20192;-92
2022/03/29 08:26:42;;;;;;;110.05;33.63;;;;;;;17.28;32.98;92845.50;4974863;28;20038;-92
2022/03/29 08:29:08;;;;;;;100.78;32.08;;;;;;;17.30;32.94;92843.00;4962501;28;20038;-92
2022/03/29 08:31:34;;;;;;;99.78;33.50;;;;;;;17.32;32.67;92842.50;4991277;28;20068;-89
2022/03/29 08:34:01;;;;;;;107.22;35.55;;;;;;;17.32;32.98;92848.66;4969576;28;20042;-92
2022/03/29 08:36:27;;;;;;;101.72;35.78;;;;;;;17.32;32.97;92845.22;4974488;28;20050;-92
2022/03/29 08:38:52;;;;;;;107.03;34.33;;;;;;;17.35;32.54;92852.38;4966412;28;20042;-92
2022/03/29 08:41:18;;;;;;;93.88;32.83;;;;;;;17.35;32.97;92841.44;4968881;28;20047;-92
2022/03/29 08:43:43;;;;;;;142.57;41.80;;;;;;;17.38;32.66;92840.41;4969630;28;20038;-94
2022/03/29 08:46:09;;;;;;;110.22;38.67;;;;;;;17.35;33.20;92831.25;5003691;28;20051;-90
2022/03/29 08:48:37;;;;;;;119.53;40.28;;;;;;;17.36;32.89;92840.91;5036678;28;20559;-92
2022/03/29 08:51:06;;;;;;;110.47;38.00;;;;;;;17.34;32.88;92834.50;5020248;28;20451;-91
2022/03/29 08:53:31;;;;;;;106.80;45.25;;;;;;;17.38;32.89;92832.22;5026207;28;20086;-90
2022/03/29 08:56:07;;;;;;;106.78;41.85;;;;;;;17.37;32.55;92831.47;5011771;28;20045;-91
2022/03/29 08:58:37;;;;;;;115.07;42.38;;;;;;;17.41;32.79;92837.38;4967458;28;20054;-91
2022/03/29 09:01:03;;;;;;;102.00;38.88;;;;;;;17.40;33.12;92837.91;4956378;28;20039;-91
2022/03/29 09:03:43;;;;;;;100.53;42.05;;;;;;;17.41;32.47;92831.91;4992161;28;20081;-92
2022/03/29 09:06:11;;;;;;;107.00;43.58;;;;;;;17.43;32.96;92829.41;4979534;28;20035;-92
2022/03/29 09:08:46;;;;;;;94.45;38.42;;;;;;;17.42;32.99;92832.66;4958525;28;20114;-92
2022/03/29 09:11:12;;;;;;;106.63;42.72;;;;;;;17.41;33.43;92825.72;4950162;28;20035;-93
2022/03/29 09:13:38;;;;;;;105.85;46.03;;;;;;;17.43;33.19;92828.66;4937811;28;20054;-91
2022/03/29 09:16:05;;;;;;;118.30;49.25;;;;;;;17.44;33.11;92819.22;4970337;28;20066;-92
2022/03/29 09:18:31;;;;;;;104.28;45.83;;;;;;;17.42;33.30;92817.00;4991282;28;20046;-92
2022/03/29 09:21:13;;;;;;;109.47;48.92;;;;;;;17.44;33.25;92819.94;4952150;28;20043;-91
2022/03/29 09:23:39;;;;;;;117.05;50.00;;;;;;;17.45;33.30;92821.44;4948464;28;20128;-93
2022/03/29 09:26:04;;;;;;;126.85;62.38;;;;;;;17.45;33.23;92815.22;4949909;28;20034;-91
2022/03/29 09:28:34;;;;;;;113.68;59.03;;;;;;;17.44;33.45;92814.50;4966730;28;20197;-93
2022/03/29 09:31:00;;;;;;;122.87;67.37;;;;;;;17.45;32.96;92815.97;5031865;28;20496;-91
2022/03/29 09:33:30;;;;;;;147.32;77.25;;;;;;;17.46;32.81;92806.50;5011311;28;20044;-92
2022/03/29 09:36:05;;;;;;;167.38;93.00;;;;;;;17.46;33.37;92811.97;5006390;28;20051;-91
2022/03/29 09:38:37;;;;;;;152.63;86.97;;;;;;;17.49;33.14;92804.75;5016718;28;20052;-92
2022/03/29 09:41:04;;;;;;;133.38;78.57;;;;;;;17.48;33.22;92812.19;5038894;28;20041;-93
2022/03/29 09:43:31;;;;;;;142.55;79.60;;;;;;;17.49;33.47;92802.00;5008086;28;20535;-91
2022/03/29 09:46:03;;;;;;;145.70;81.20;;;;;;;17.48;33.88;92800.53;5009250;28;20040;-91
2022/03/29 09:48:32;;;;;;;158.10;87.20;;;;;;;17.50;33.30;92792.56;5002317;28;20044;-92
2022/03/29 09:51:16;;;;;;;159.52;90.30;;;;;;;17.47;33.86;92793.59;5043425;28;20126;-94
2022/03/29 09:56:11;;;;;;;175.75;98.38;;;;;;;17.52;33.35;92794.75;5053071;22;20040;-95
2022/03/29 09:58:39;;;;;;;152.07;86.72;;;;;;;17.52;33.87;92792.78;5006795;28;20043;-92
2022/03/29 10:01:22;;;;;;;146.27;82.53;;;;;;;17.51;33.70;92790.56;5032418;28;20047;-92
2022/03/29 10:03:49;;;;;;;137.13;81.75;;;;;;;17.51;33.58;92787.81;5021870;28;20120;-92
2022/03/29 10:06:15;;;;;;;141.02;80.43;;;;;;;17.54;33.27;92784.06;4999269;28;20044;-93
2022/03/29 10:11:27;;;;;;;137.13;79.15;;;;;;;17.53;33.66;92777.13;5024550;28;20124;-91
2022/03/29 10:13:52;;;;;;;125.57;78.47;;;;;;;17.53;33.37;92774.38;5028502;28;20033;-88
2022/03/29 10:16:19;;;;;;;127.60;71.15;;;;;;;17.58;33.94;92773.53;5010987;28;20132;-88
2022/03/29 10:18:46;;;;;;;117.53;73.18;;;;;;;17.61;33.79;92767.78;5017212;28;20033;-91
2022/03/29 10:21:15;;;;;;;101.10;60.95;;;;;;;17.61;34.06;92770.50;5011414;28;20031;-92
2022/03/29 10:23:45;;;;;;;108.88;68.70;;;;;;;17.66;33.27;92764.25;5016470;28;20041;-88
2022/03/29 10:26:17;;;;;;;114.93;65.90;;;;;;;17.65;33.88;92760.03;4996602;28;20033;-90
2022/03/29 10:28:45;;;;;;;123.28;74.18;;;;;;;17.67;33.29;92756.78;5026650;28;20041;-94
2022/03/29 10:31:33;;;;;;;99.03;63.60;;;;;;;17.66;33.22;92761.50;5034057;28;20047;-90
2022/03/29 10:34:14;;;;;;;88.45;56.88;;;;;;;17.65;34.31;92751.84;5042830;28;20033;-91
2022/03/29 10:37:01;;;;;;;101.43;57.92;;;;;;;17.64;33.91;92758.56;5047900;28;20036;-92
2022/03/29 10:39:45;;;;;;;107.28;55.58;;;;;;;17.67;33.58;92751.31;5043547;28;20086;-91
2022/03/29 10:42:22;;;;;;;86.22;51.17;;;;;;;17.69;33.37;92746.81;5044955;28;20096;-91
2022/03/29 10:45:06;;;;;;;92.85;52.05;;;;;;;17.71;33.23;92740.81;5031249;28;20112;-90
2022/03/29 10:47:32;;;;;;;98.38;50.80;;;;;;;17.70;33.51;92737.34;5059245;28;20040;-90
2022/03/29 10:49:58;;;;;;;74.55;46.17;;;;;;;17.72;33.50;92734.09;5021156;28;20035;-91
2022/03/29 10:52:23;;;;;;;82.97;48.63;;;;;;;17.76;33.09;92729.78;5010286;28;20040;-89
2022/03/29 10:54:53;;;;;;;80.07;47.47;;;;;;;17.75;32.93;92731.03;5040600;28;20040;-90
2022/03/29 10:57:28;;;;;;;73.10;45.25;;;;;;;17.75;33.45;92724.84;4990658;28;20630;-90
2022/03/29 11:00:31;;;;;;;82.75;48.40;;;;;;;17.73;33.43;92717.19;5020237;28;20040;-89
2022/03/29 11:03:25;;;;;;;73.95;45.63;;;;;;;17.71;33.30;92716.22;5046697;28;20408;-88
2022/03/29 11:06:06;;;;;;;75.90;47.28;;;;;;;17.72;33.31;92701.28;5023728;28;20045;-89
2022/03/29 11:08:36;;;;;;;90.63;52.63;;;;;;;17.71;33.10;92700.56;5052746;28;20041;-90
2022/03/29 11:11:05;;;;;;;91.35;51.50;;;;;;;17.71;33.08;92700.56;5038876;28;20036;-89
2022/03/29 11:13:37;;;;;;;104.15;58.83;;;;;;;17.71;33.07;92699.81;5020936;28;20034;-91
2022/03/29 11:16:42;;;;;;;119.03;66.95;;;;;;;17.69;33.02;92702.34;4990703;28;20037;-93
2022/03/29 11:19:32;;;;;;;129.43;74.10;;;;;;;17.71;32.85;92691.63;4922983;29;20044;-86
2022/03/29 11:22:00;;;;;;;122.78;78.13;;;;;;;17.72;32.96;92688.38;4926121;29;20096;-87
2022/03/29 11:24:25;;;;;;;123.20;75.55;;;;;;;17.73;33.21;92689.84;4917812;29;20074;-91
2022/03/29 11:27:13;;;;;;;108.10;69.22;;;;;;;17.70;33.02;92674.47;4932556;29;20044;-87
2022/03/29 11:29:39;;;;;;;122.75;79.85;;;;;;;17.74;33.09;92687.84;4922381;29;20075;-91
2022/03/29 11:32:05;;;;;;;144.10;84.78;;;;;;;17.72;33.24;92671.22;4898748;29;20044;-88
2022/03/29 11:34:37;;;;;;;165.10;89.93;;;;;;;17.72;33.33;92677.44;4912174;29;20040;-90
2022/03/29 11:37:03;;;;;;;156.43;89.22;;;;;;;17.73;32.81;92667.97;4899992;29;20522;-87
2022/03/29 11:39:30;;;;;;;152.90;85.35;;;;;;;17.76;33.32;92671.63;4886306;29;20047;-89
2022/03/29 11:41:55;;;;;;;125.55;77.50;;;;;;;17.74;33.64;92658.50;4901088;29;20036;-92
2022/03/29 11:44:42;;;;;;;143.15;79.07;;;;;;;17.71;33.65;92654.09;4899926;29;20037;-89
2022/03/29 11:47:16;;;;;;;156.13;90.95;;;;;;;17.72;33.45;92658.28;4922363;29;20047;-89
2022/03/29 11:49:42;;;;;;;135.27;89.28;;;;;;;17.74;33.74;92650.31;4955059;28;20038;-91
2022/03/29 11:52:12;;;;;;;149.88;93.97;;;;;;;17.73;33.43;92650.84;4999410;28;20051;-90
2022/03/29 11:54:45;;;;;;;130.02;78.25;;;;;;;17.71;33.24;92640.41;5003193;28;20045;-90
2022/03/29 11:57:24;;;;;;;131.05;84.05;;;;;;;17.72;32.58;92647.38;4966913;28;20043;-89
2022/03/29 11:59:50;;;;;;;124.45;73.35;;;;;;;17.71;32.36;92634.22;4951803;28;20037;-92